sensor_id;sensor_type;location;lat;lon;timestamp;temperature;humidity
35246;DHT22;21379;50.962;6.960;2022-08-21T00:01:21;17.30;99.90
35246;DHT22;21379;50.962;6.960;2022-08-21T00:03:48;17.30;99.90
35246;DHT22;21379;50.962;6.960;2022-08-21T00:06:16;17.20;99.90
35246;DHT22;21379;50.962;6.960;2022-08-21T00:08:45;17.20;99.90
35246;DHT22;21379;50.962;6.960;2022-08-21T00:11:12;17.20;99.90
35246;DHT22;21379;50.962;6.960;2022-08-21T00:13:39;17.20;99.90
35246;DHT22;21379;50.962;6.960;2022-08-21T00:16:06;17.10;99.90
35246;DHT22;21379;50.962;6.960;2022-08-21T00:18:33;17.10;99.90
35246;DHT22;21379;50.962;6.960;2022-08-21T00:21:00;17.10;99.90
35246;DHT22;21379;50.962;6.960;2022-08-21T00:23:27;17.00;99.90
35246;DHT22;21379;50.962;6.960;2022-08-21T00:25:55;17.00;99.90
35246;DHT22;21379;50.962;6.960;2022-08-21T00:28:22;17.00;99.90
35246;DHT22;21379;50.962;6.960;2022-08-21T00:30:49;17.10;99.90
35246;DHT22;21379;50.962;6.960;2022-08-21T00:33:16;17.00;99.90
35246;DHT22;21379;50.962;6.960;2022-08-21T00:35:43;17.00;99.90
35246;DHT22;21379;50.962;6.960;2022-08-21T00:38:10;17.00;99.90
35246;DHT22;21379;50.962;6.960;2022-08-21T00:40:42;17.00;99.90
35246;DHT22;21379;50.962;6.960;2022-08-21T00:43:12;17.00;99.90
35246;DHT22;21379;50.962;6.960;2022-08-21T00:45:39;16.90;99.90
35246;DHT22;21379;50.962;6.960;2022-08-21T00:48:07;16.90;99.90
35246;DHT22;21379;50.962;6.960;2022-08-21T00:50:37;16.90;99.90
35246;DHT22;21379;50.962;6.960;2022-08-21T00:53:06;16.80;99.90
35246;DHT22;21379;50.962;6.960;2022-08-21T00:55:34;16.70;99.90
35246;DHT22;21379;50.962;6.960;2022-08-21T00:58:03;16.70;99.90
35246;DHT22;21379;50.962;6.960;2022-08-21T01:00:34;16.60;99.90
35246;DHT22;21379;50.962;6.960;2022-08-21T01:03:06;16.60;99.90
35246;DHT22;21379;50.962;6.960;2022-08-21T01:05:33;16.50;99.90
35246;DHT22;21379;50.962;6.960;2022-08-21T01:08:00;16.50;99.90
35246;DHT22;21379;50.962;6.960;2022-08-21T01:10:27;16.50;99.90
35246;DHT22;21379;50.962;6.960;2022-08-21T01:12:56;16.50;99.90
35246;DHT22;21379;50.962;6.960;2022-08-21T01:15:27;16.40;99.90
35246;DHT22;21379;50.962;6.960;2022-08-21T01:17:57;16.40;99.90
35246;DHT22;21379;50.962;6.960;2022-08-21T01:20:24;16.30;99.90
35246;DHT22;21379;50.962;6.960;2022-08-21T01:22:52;16.30;99.90
35246;DHT22;21379;50.962;6.960;2022-08-21T01:25:19;16.30;99.90
35246;DHT22;21379;50.962;6.960;2022-08-21T01:27:46;16.30;99.90
35246;DHT22;21379;50.962;6.960;2022-08-21T01:30:18;16.30;99.90
35246;DHT22;21379;50.962;6.960;2022-08-21T01:32:46;16.20;99.90
35246;DHT22;21379;50.962;6.960;2022-08-21T01:35:15;16.20;99.90
35246;DHT22;21379;50.962;6.960;2022-08-21T01:37:43;16.20;99.90
35246;DHT22;21379;50.962;6.960;2022-08-21T01:40:12;16.20;99.90
35246;DHT22;21379;50.962;6.960;2022-08-21T01:42:41;16.20;99.90
35246;DHT22;21379;50.962;6.960;2022-08-21T01:45:10;16.20;99.90
35246;DHT22;21379;50.962;6.960;2022-08-21T01:47:37;16.20;99.90
35246;DHT22;21379;50.962;6.960;2022-08-21T01:50:06;16.20;99.90
35246;DHT22;21379;50.962;6.960;2022-08-21T01:52:33;16.20;99.90
35246;DHT22;21379;50.962;6.960;2022-08-21T01:55:00;16.20;99.90
35246;DHT22;21379;50.962;6.960;2022-08-21T01:57:28;16.20;99.90
35246;DHT22;21379;50.962;6.960;2022-08-21T01:59:55;16.10;99.90
35246;DHT22;21379;50.962;6.960;2022-08-21T02:02:22;16.10;99.90
35246;DHT22;21379;50.962;6.960;2022-08-21T02:04:49;16.20;99.90
35246;DHT22;21379;50.962;6.960;2022-08-21T02:07:16;16.20;99.90
35246;DHT22;21379;50.962;6.960;2022-08-21T02:09:44;16.20;99.90
35246;DHT22;21379;50.962;6.960;2022-08-21T02:12:11;16.20;99.90
35246;DHT22;21379;50.962;6.960;2022-08-21T02:14:39;16.20;99.90
35246;DHT22;21379;50.962;6.960;2022-08-21T02:17:06;16.20;99.90
35246;DHT22;21379;50.962;6.960;2022-08-21T02:19:33;16.10;99.90
35246;DHT22;21379;50.962;6.960;2022-08-21T02:22:00;16.10;99.90
35246;DHT22;21379;50.962;6.960;2022-08-21T02:24:26;16.00;99.90
35246;DHT22;21379;50.962;6.960;2022-08-21T02:26:53;16.00;99.90
35246;DHT22;21379;50.962;6.960;2022-08-21T02:29:20;16.00;99.90
35246;DHT22;21379;50.962;6.960;2022-08-21T02:31:48;15.90;99.90
35246;DHT22;21379;50.962;6.960;2022-08-21T02:34:15;15.90;99.90
35246;DHT22;21379;50.962;6.960;2022-08-21T02:36:42;15.80;99.90
35246;DHT22;21379;50.962;6.960;2022-08-21T02:39:09;15.80;99.90
35246;DHT22;21379;50.962;6.960;2022-08-21T02:41:36;15.80;99.90
35246;DHT22;21379;50.962;6.960;2022-08-21T02:44:03;15.70;99.90
35246;DHT22;21379;50.962;6.960;2022-08-21T02:46:30;15.70;99.90
35246;DHT22;21379;50.962;6.960;2022-08-21T02:48:58;15.70;99.90
35246;DHT22;21379;50.962;6.960;2022-08-21T02:51:25;15.70;99.90
35246;DHT22;21379;50.962;6.960;2022-08-21T02:53:52;15.60;99.90
35246;DHT22;21379;50.962;6.960;2022-08-21T02:56:21;15.60;99.90
35246;DHT22;21379;50.962;6.960;2022-08-21T02:58:50;15.60;99.90
35246;DHT22;21379;50.962;6.960;2022-08-21T03:01:17;15.60;99.90
35246;DHT22;21379;50.962;6.960;2022-08-21T03:03:46;15.60;99.90
35246;DHT22;21379;50.962;6.960;2022-08-21T03:06:19;15.60;99.90
35246;DHT22;21379;50.962;6.960;2022-08-21T03:08:46;15.50;99.90
35246;DHT22;21379;50.962;6.960;2022-08-21T03:11:14;15.50;99.90
35246;DHT22;21379;50.962;6.960;2022-08-21T03:13:41;15.50;99.90
35246;DHT22;21379;50.962;6.960;2022-08-21T03:16:08;15.50;99.90
35246;DHT22;21379;50.962;6.960;2022-08-21T03:18:35;15.50;99.90
35246;DHT22;21379;50.962;6.960;2022-08-21T03:21:02;15.50;99.90
35246;DHT22;21379;50.962;6.960;2022-08-21T03:23:31;15.50;99.90
35246;DHT22;21379;50.962;6.960;2022-08-21T03:25:58;15.40;99.90
35246;DHT22;21379;50.962;6.960;2022-08-21T03:28:25;15.40;99.90
35246;DHT22;21379;50.962;6.960;2022-08-21T03:30:52;15.40;99.90
35246;DHT22;21379;50.962;6.960;2022-08-21T03:33:20;15.40;99.90
35246;DHT22;21379;50.962;6.960;2022-08-21T03:35:54;15.40;99.90
35246;DHT22;21379;50.962;6.960;2022-08-21T03:38:23;15.40;99.90
35246;DHT22;21379;50.962;6.960;2022-08-21T03:40:51;15.30;99.90
35246;DHT22;21379;50.962;6.960;2022-08-21T03:43:18;15.40;99.90
35246;DHT22;21379;50.962;6.960;2022-08-21T03:45:45;15.30;99.90
35246;DHT22;21379;50.962;6.960;2022-08-21T03:48:12;15.30;99.90
35246;DHT22;21379;50.962;6.960;2022-08-21T03:50:41;15.30;99.90
35246;DHT22;21379;50.962;6.960;2022-08-21T03:53:09;15.30;99.90
35246;DHT22;21379;50.962;6.960;2022-08-21T03:55:37;15.20;99.90
35246;DHT22;21379;50.962;6.960;2022-08-21T03:58:05;15.20;99.90
35246;DHT22;21379;50.962;6.960;2022-08-21T04:00:32;15.20;99.90
35246;DHT22;21379;50.962;6.960;2022-08-21T04:02:59;15.20;99.90
35246;DHT22;21379;50.962;6.960;2022-08-21T04:05:26;15.20;99.90
35246;DHT22;21379;50.962;6.960;2022-08-21T04:07:57;15.10;99.90
35246;DHT22;21379;50.962;6.960;2022-08-21T04:10:24;15.10;99.90
35246;DHT22;21379;50.962;6.960;2022-08-21T04:12:52;15.10;99.90
35246;DHT22;21379;50.962;6.960;2022-08-21T04:15:22;15.10;99.90
35246;DHT22;21379;50.962;6.960;2022-08-21T04:17:49;15.00;99.90
35246;DHT22;21379;50.962;6.960;2022-08-21T04:20:17;15.00;99.90
35246;DHT22;21379;50.962;6.960;2022-08-21T04:22:44;15.00;99.90
35246;DHT22;21379;50.962;6.960;2022-08-21T04:25:12;15.00;99.90
35246;DHT22;21379;50.962;6.960;2022-08-21T04:27:39;15.00;99.90
35246;DHT22;21379;50.962;6.960;2022-08-21T04:30:08;15.00;99.90
35246;DHT22;21379;50.962;6.960;2022-08-21T04:32:37;15.00;99.90
35246;DHT22;21379;50.962;6.960;2022-08-21T04:35:05;15.00;99.90
35246;DHT22;21379;50.962;6.960;2022-08-21T04:37:33;14.90;99.90
35246;DHT22;21379;50.962;6.960;2022-08-21T04:39:59;15.00;99.90
35246;DHT22;21379;50.962;6.960;2022-08-21T04:42:27;15.00;99.90
35246;DHT22;21379;50.962;6.960;2022-08-21T04:44:55;15.00;99.90
35246;DHT22;21379;50.962;6.960;2022-08-21T04:47:23;15.10;99.90
35246;DHT22;21379;50.962;6.960;2022-08-21T04:49:51;15.10;99.90
35246;DHT22;21379;50.962;6.960;2022-08-21T04:52:21;15.10;99.90
35246;DHT22;21379;50.962;6.960;2022-08-21T04:54:50;15.10;99.90
35246;DHT22;21379;50.962;6.960;2022-08-21T04:57:18;15.10;99.90
35246;DHT22;21379;50.962;6.960;2022-08-21T04:59:48;15.10;99.90
35246;DHT22;21379;50.962;6.960;2022-08-21T05:02:16;15.10;99.90
35246;DHT22;21379;50.962;6.960;2022-08-21T05:04:46;15.10;99.90
35246;DHT22;21379;50.962;6.960;2022-08-21T05:07:19;15.10;99.90
35246;DHT22;21379;50.962;6.960;2022-08-21T05:09:47;15.10;99.90
35246;DHT22;21379;50.962;6.960;2022-08-21T05:12:14;15.20;99.90
35246;DHT22;21379;50.962;6.960;2022-08-21T05:14:42;15.20;99.90
35246;DHT22;21379;50.962;6.960;2022-08-21T05:17:09;15.20;99.90
35246;DHT22;21379;50.962;6.960;2022-08-21T05:19:36;15.20;99.90
35246;DHT22;21379;50.962;6.960;2022-08-21T05:22:03;15.20;99.90
35246;DHT22;21379;50.962;6.960;2022-08-21T05:24:32;15.30;99.90
35246;DHT22;21379;50.962;6.960;2022-08-21T05:26:59;15.30;99.90
35246;DHT22;21379;50.962;6.960;2022-08-21T05:29:26;15.30;99.90
35246;DHT22;21379;50.962;6.960;2022-08-21T05:31:56;15.40;99.90
35246;DHT22;21379;50.962;6.960;2022-08-21T05:34:23;15.40;99.90
35246;DHT22;21379;50.962;6.960;2022-08-21T05:36:50;15.40;99.90
35246;DHT22;21379;50.962;6.960;2022-08-21T05:39:17;15.40;99.90
35246;DHT22;21379;50.962;6.960;2022-08-21T05:41:56;15.50;99.90
35246;DHT22;21379;50.962;6.960;2022-08-21T05:44:23;15.60;99.90
35246;DHT22;21379;50.962;6.960;2022-08-21T05:46:50;15.60;99.90
35246;DHT22;21379;50.962;6.960;2022-08-21T05:49:17;15.60;99.90
35246;DHT22;21379;50.962;6.960;2022-08-21T05:51:44;15.70;99.90
35246;DHT22;21379;50.962;6.960;2022-08-21T05:54:11;15.70;99.90
35246;DHT22;21379;50.962;6.960;2022-08-21T05:56:38;15.80;99.90
35246;DHT22;21379;50.962;6.960;2022-08-21T05:59:06;15.90;99.90
35246;DHT22;21379;50.962;6.960;2022-08-21T06:01:34;16.00;99.90
35246;DHT22;21379;50.962;6.960;2022-08-21T06:04:01;16.10;99.90
35246;DHT22;21379;50.962;6.960;2022-08-21T06:06:30;16.20;99.90
35246;DHT22;21379;50.962;6.960;2022-08-21T06:08:58;16.20;99.90
35246;DHT22;21379;50.962;6.960;2022-08-21T06:11:24;16.30;99.90
35246;DHT22;21379;50.962;6.960;2022-08-21T06:13:51;16.40;99.90
35246;DHT22;21379;50.962;6.960;2022-08-21T06:16:20;16.60;99.90
35246;DHT22;21379;50.962;6.960;2022-08-21T06:18:47;16.60;99.90
35246;DHT22;21379;50.962;6.960;2022-08-21T06:21:14;16.70;99.90
35246;DHT22;21379;50.962;6.960;2022-08-21T06:23:42;16.80;99.90
35246;DHT22;21379;50.962;6.960;2022-08-21T06:26:10;17.00;99.90
35246;DHT22;21379;50.962;6.960;2022-08-21T06:28:38;17.20;99.90
35246;DHT22;21379;50.962;6.960;2022-08-21T06:31:11;17.30;99.90
35246;DHT22;21379;50.962;6.960;2022-08-21T06:33:39;17.40;99.90
35246;DHT22;21379;50.962;6.960;2022-08-21T06:36:07;17.60;99.90
35246;DHT22;21379;50.962;6.960;2022-08-21T06:38:34;17.80;99.90
35246;DHT22;21379;50.962;6.960;2022-08-21T06:41:01;17.90;99.90
35246;DHT22;21379;50.962;6.960;2022-08-21T06:43:28;18.10;99.90
35246;DHT22;21379;50.962;6.960;2022-08-21T06:45:56;18.20;99.90
35246;DHT22;21379;50.962;6.960;2022-08-21T06:48:23;18.40;99.90
35246;DHT22;21379;50.962;6.960;2022-08-21T06:50:51;18.50;99.90
35246;DHT22;21379;50.962;6.960;2022-08-21T06:53:20;18.60;99.90
35246;DHT22;21379;50.962;6.960;2022-08-21T06:55:48;18.70;99.90
35246;DHT22;21379;50.962;6.960;2022-08-21T06:58:15;18.80;99.90
35246;DHT22;21379;50.962;6.960;2022-08-21T07:00:44;18.90;99.90
35246;DHT22;21379;50.962;6.960;2022-08-21T07:03:22;19.10;99.90
35246;DHT22;21379;50.962;6.960;2022-08-21T07:05:51;19.30;99.90
35246;DHT22;21379;50.962;6.960;2022-08-21T07:08:18;19.20;99.90
35246;DHT22;21379;50.962;6.960;2022-08-21T07:10:46;19.50;99.90
35246;DHT22;21379;50.962;6.960;2022-08-21T07:13:14;19.60;99.90
35246;DHT22;21379;50.962;6.960;2022-08-21T07:15:41;19.70;99.90
35246;DHT22;21379;50.962;6.960;2022-08-21T07:18:09;19.70;99.90
35246;DHT22;21379;50.962;6.960;2022-08-21T07:20:36;20.00;99.90
35246;DHT22;21379;50.962;6.960;2022-08-21T07:23:06;20.20;99.90
35246;DHT22;21379;50.962;6.960;2022-08-21T07:25:34;20.30;99.90
35246;DHT22;21379;50.962;6.960;2022-08-21T07:28:02;20.30;99.90
35246;DHT22;21379;50.962;6.960;2022-08-21T07:30:29;20.50;99.90
35246;DHT22;21379;50.962;6.960;2022-08-21T07:32:57;20.60;99.90
35246;DHT22;21379;50.962;6.960;2022-08-21T07:35:23;20.90;99.90
35246;DHT22;21379;50.962;6.960;2022-08-21T07:37:50;21.00;99.90
35246;DHT22;21379;50.962;6.960;2022-08-21T07:40:19;21.10;99.90
35246;DHT22;21379;50.962;6.960;2022-08-21T07:42:47;21.00;99.90
35246;DHT22;21379;50.962;6.960;2022-08-21T07:45:21;21.20;99.90
35246;DHT22;21379;50.962;6.960;2022-08-21T07:47:50;21.50;99.90
35246;DHT22;21379;50.962;6.960;2022-08-21T07:50:17;21.70;99.90
35246;DHT22;21379;50.962;6.960;2022-08-21T07:52:44;21.90;99.90
35246;DHT22;21379;50.962;6.960;2022-08-21T07:55:15;22.10;99.90
35246;DHT22;21379;50.962;6.960;2022-08-21T07:57:44;22.90;99.90
35246;DHT22;21379;50.962;6.960;2022-08-21T08:00:13;23.90;99.90
35246;DHT22;21379;50.962;6.960;2022-08-21T08:02:43;23.90;99.90
35246;DHT22;21379;50.962;6.960;2022-08-21T08:05:11;24.80;99.90
35246;DHT22;21379;50.962;6.960;2022-08-21T08:07:38;25.00;99.90
35246;DHT22;21379;50.962;6.960;2022-08-21T08:10:06;24.90;99.90
35246;DHT22;21379;50.962;6.960;2022-08-21T08:12:34;24.30;99.90
35246;DHT22;21379;50.962;6.960;2022-08-21T08:15:03;25.10;99.90
35246;DHT22;21379;50.962;6.960;2022-08-21T08:17:31;25.50;99.90
35246;DHT22;21379;50.962;6.960;2022-08-21T08:19:58;25.80;99.90
35246;DHT22;21379;50.962;6.960;2022-08-21T08:22:26;26.20;99.90
35246;DHT22;21379;50.962;6.960;2022-08-21T08:24:54;26.00;99.90
35246;DHT22;21379;50.962;6.960;2022-08-21T08:27:21;25.90;99.90
35246;DHT22;21379;50.962;6.960;2022-08-21T08:29:49;25.90;99.90
35246;DHT22;21379;50.962;6.960;2022-08-21T08:32:17;25.50;99.90
35246;DHT22;21379;50.962;6.960;2022-08-21T08:34:44;25.40;99.90
35246;DHT22;21379;50.962;6.960;2022-08-21T08:37:12;25.40;99.90
35246;DHT22;21379;50.962;6.960;2022-08-21T08:39:39;25.50;99.90
35246;DHT22;21379;50.962;6.960;2022-08-21T08:42:12;25.30;99.90
35246;DHT22;21379;50.962;6.960;2022-08-21T08:44:40;25.50;99.90
35246;DHT22;21379;50.962;6.960;2022-08-21T08:47:09;25.90;99.90
35246;DHT22;21379;50.962;6.960;2022-08-21T08:49:43;26.10;99.90
35246;DHT22;21379;50.962;6.960;2022-08-21T08:52:18;26.00;99.90
35246;DHT22;21379;50.962;6.960;2022-08-21T08:54:51;25.30;99.90
35246;DHT22;21379;50.962;6.960;2022-08-21T08:57:24;25.70;99.90
35246;DHT22;21379;50.962;6.960;2022-08-21T08:59:56;25.80;99.90
35246;DHT22;21379;50.962;6.960;2022-08-21T09:02:24;26.10;99.90
35246;DHT22;21379;50.962;6.960;2022-08-21T09:04:54;26.10;99.90
35246;DHT22;21379;50.962;6.960;2022-08-21T09:07:40;26.20;99.90
35246;DHT22;21379;50.962;6.960;2022-08-21T09:10:16;26.30;99.90
35246;DHT22;21379;50.962;6.960;2022-08-21T09:12:55;26.40;99.90
35246;DHT22;21379;50.962;6.960;2022-08-21T09:15:28;26.40;99.90
35246;DHT22;21379;50.962;6.960;2022-08-21T09:18:09;26.80;99.90
35246;DHT22;21379;50.962;6.960;2022-08-21T09:20:47;26.80;99.90
35246;DHT22;21379;50.962;6.960;2022-08-21T09:23:25;26.50;99.90
35246;DHT22;21379;50.962;6.960;2022-08-21T09:26:00;25.70;99.90
35246;DHT22;21379;50.962;6.960;2022-08-21T09:28:31;26.00;99.90
35246;DHT22;21379;50.962;6.960;2022-08-21T09:30:59;25.90;99.90
35246;DHT22;21379;50.962;6.960;2022-08-21T09:33:28;26.40;99.90
35246;DHT22;21379;50.962;6.960;2022-08-21T09:35:57;27.10;99.90
35246;DHT22;21379;50.962;6.960;2022-08-21T09:38:27;25.90;99.90
35246;DHT22;21379;50.962;6.960;2022-08-21T09:41:00;26.50;99.90
35246;DHT22;21379;50.962;6.960;2022-08-21T09:43:29;26.80;99.90
35246;DHT22;21379;50.962;6.960;2022-08-21T09:46:08;26.90;99.90
35246;DHT22;21379;50.962;6.960;2022-08-21T09:48:42;26.50;99.90
35246;DHT22;21379;50.962;6.960;2022-08-21T09:51:14;26.80;99.90
35246;DHT22;21379;50.962;6.960;2022-08-21T09:53:46;26.90;99.90
35246;DHT22;21379;50.962;6.960;2022-08-21T09:56:21;26.40;99.90
35246;DHT22;21379;50.962;6.960;2022-08-21T09:59:18;26.50;99.90
35246;DHT22;21379;50.962;6.960;2022-08-21T10:01:47;26.90;99.90
35246;DHT22;21379;50.962;6.960;2022-08-21T10:04:18;27.20;99.90
35246;DHT22;21379;50.962;6.960;2022-08-21T10:06:47;27.80;99.80
35246;DHT22;21379;50.962;6.960;2022-08-21T10:09:16;27.80;99.80
35246;DHT22;21379;50.962;6.960;2022-08-21T10:11:51;27.50;99.60
35246;DHT22;21379;50.962;6.960;2022-08-21T10:14:42;27.30;99.70
35246;DHT22;21379;50.962;6.960;2022-08-21T10:17:16;27.00;99.30
35246;DHT22;21379;50.962;6.960;2022-08-21T10:19:56;26.80;99.90
35246;DHT22;21379;50.962;6.960;2022-08-21T10:22:35;27.00;99.90
35246;DHT22;21379;50.962;6.960;2022-08-21T10:25:11;26.30;99.70
35246;DHT22;21379;50.962;6.960;2022-08-21T10:27:47;27.10;99.90
35246;DHT22;21379;50.962;6.960;2022-08-21T10:30:32;27.90;99.90
35246;DHT22;21379;50.962;6.960;2022-08-21T10:33:13;28.90;99.80
35246;DHT22;21379;50.962;6.960;2022-08-21T10:35:51;28.90;98.20
35246;DHT22;21379;50.962;6.960;2022-08-21T10:38:49;29.20;97.40
35246;DHT22;21379;50.962;6.960;2022-08-21T10:41:25;28.70;96.60
35246;DHT22;21379;50.962;6.960;2022-08-21T10:44:04;28.70;97.10
35246;DHT22;21379;50.962;6.960;2022-08-21T10:46:43;27.70;97.40
35246;DHT22;21379;50.962;6.960;2022-08-21T10:49:20;28.10;97.40
35246;DHT22;21379;50.962;6.960;2022-08-21T10:51:54;27.50;96.50
35246;DHT22;21379;50.962;6.960;2022-08-21T10:54:25;26.90;97.60
35246;DHT22;21379;50.962;6.960;2022-08-21T10:57:00;26.70;97.30
35246;DHT22;21379;50.962;6.960;2022-08-21T10:59:39;27.10;98.10
35246;DHT22;21379;50.962;6.960;2022-08-21T11:02:13;27.40;97.20
35246;DHT22;21379;50.962;6.960;2022-08-21T11:04:50;27.30;97.10
35246;DHT22;21379;50.962;6.960;2022-08-21T11:07:21;26.40;98.50
35246;DHT22;21379;50.962;6.960;2022-08-21T11:09:55;26.60;97.30
35246;DHT22;21379;50.962;6.960;2022-08-21T11:12:34;27.00;98.20
35246;DHT22;21379;50.962;6.960;2022-08-21T11:15:07;27.30;97.10
35246;DHT22;21379;50.962;6.960;2022-08-21T11:17:44;27.70;97.10
35246;DHT22;21379;50.962;6.960;2022-08-21T11:20:17;27.40;97.70
35246;DHT22;21379;50.962;6.960;2022-08-21T11:22:50;27.80;96.70
35246;DHT22;21379;50.962;6.960;2022-08-21T11:25:33;28.20;98.20
35246;DHT22;21379;50.962;6.960;2022-08-21T11:28:08;28.10;96.20
35246;DHT22;21379;50.962;6.960;2022-08-21T11:30:45;28.20;96.20
35246;DHT22;21379;50.962;6.960;2022-08-21T11:33:27;27.60;95.90
35246;DHT22;21379;50.962;6.960;2022-08-21T11:36:02;27.20;96.20
35246;DHT22;21379;50.962;6.960;2022-08-21T11:38:38;26.90;95.70
35246;DHT22;21379;50.962;6.960;2022-08-21T11:41:16;26.60;96.60
35246;DHT22;21379;50.962;6.960;2022-08-21T11:43:48;26.70;96.40
35246;DHT22;21379;50.962;6.960;2022-08-21T11:46:29;26.70;96.10
35246;DHT22;21379;50.962;6.960;2022-08-21T11:49:33;26.70;96.20
35246;DHT22;21379;50.962;6.960;2022-08-21T11:52:10;26.60;96.70
35246;DHT22;21379;50.962;6.960;2022-08-21T11:54:44;26.80;96.00
35246;DHT22;21379;50.962;6.960;2022-08-21T11:57:18;27.20;95.80
35246;DHT22;21379;50.962;6.960;2022-08-21T11:59:49;27.60;95.30
35246;DHT22;21379;50.962;6.960;2022-08-21T12:02:20;27.70;95.00
35246;DHT22;21379;50.962;6.960;2022-08-21T12:04:51;27.50;95.10
35246;DHT22;21379;50.962;6.960;2022-08-21T12:07:31;27.60;95.10
35246;DHT22;21379;50.962;6.960;2022-08-21T12:09:59;27.80;95.40
35246;DHT22;21379;50.962;6.960;2022-08-21T12:12:29;28.10;95.10
35246;DHT22;21379;50.962;6.960;2022-08-21T12:15:15;28.90;94.40
35246;DHT22;21379;50.962;6.960;2022-08-21T12:17:53;28.60;94.20
35246;DHT22;21379;50.962;6.960;2022-08-21T12:20:32;29.00;93.50
35246;DHT22;21379;50.962;6.960;2022-08-21T12:23:05;29.10;93.20
35246;DHT22;21379;50.962;6.960;2022-08-21T12:25:41;28.50;92.90
35246;DHT22;21379;50.962;6.960;2022-08-21T12:28:12;28.30;93.00
35246;DHT22;21379;50.962;6.960;2022-08-21T12:30:42;28.30;93.20
35246;DHT22;21379;50.962;6.960;2022-08-21T12:33:21;28.20;92.90
35246;DHT22;21379;50.962;6.960;2022-08-21T12:35:51;28.50;93.40
35246;DHT22;21379;50.962;6.960;2022-08-21T12:38:21;28.00;94.00
35246;DHT22;21379;50.962;6.960;2022-08-21T12:40:53;27.50;92.80
35246;DHT22;21379;50.962;6.960;2022-08-21T12:43:27;28.20;93.20
35246;DHT22;21379;50.962;6.960;2022-08-21T12:45:55;28.50;92.90
35246;DHT22;21379;50.962;6.960;2022-08-21T12:48:26;28.10;92.80
35246;DHT22;21379;50.962;6.960;2022-08-21T12:50:55;28.30;92.80
35246;DHT22;21379;50.962;6.960;2022-08-21T12:53:28;28.20;92.10
35246;DHT22;21379;50.962;6.960;2022-08-21T12:55:57;28.90;92.70
35246;DHT22;21379;50.962;6.960;2022-08-21T12:58:29;28.50;92.70
35246;DHT22;21379;50.962;6.960;2022-08-21T13:00:59;28.10;92.40
35246;DHT22;21379;50.962;6.960;2022-08-21T13:03:28;28.30;92.60
35246;DHT22;21379;50.962;6.960;2022-08-21T13:05:55;28.10;92.80
35246;DHT22;21379;50.962;6.960;2022-08-21T13:08:23;28.60;93.20
35246;DHT22;21379;50.962;6.960;2022-08-21T13:10:58;28.50;92.70
35246;DHT22;21379;50.962;6.960;2022-08-21T13:13:28;28.00;92.20
35246;DHT22;21379;50.962;6.960;2022-08-21T13:16:02;28.60;92.50
35246;DHT22;21379;50.962;6.960;2022-08-21T13:18:32;28.40;93.00
35246;DHT22;21379;50.962;6.960;2022-08-21T13:21:05;28.30;92.30
35246;DHT22;21379;50.962;6.960;2022-08-21T13:23:33;28.10;92.90
35246;DHT22;21379;50.962;6.960;2022-08-21T13:26:00;27.90;92.80
35246;DHT22;21379;50.962;6.960;2022-08-21T13:28:39;28.40;93.50
35246;DHT22;21379;50.962;6.960;2022-08-21T13:31:08;28.50;92.50
35246;DHT22;21379;50.962;6.960;2022-08-21T13:33:38;28.60;92.80
35246;DHT22;21379;50.962;6.960;2022-08-21T13:36:10;28.30;92.40
35246;DHT22;21379;50.962;6.960;2022-08-21T13:38:40;28.20;92.60
35246;DHT22;21379;50.962;6.960;2022-08-21T13:41:16;28.40;92.80
35246;DHT22;21379;50.962;6.960;2022-08-21T13:43:51;28.80;92.70
35246;DHT22;21379;50.962;6.960;2022-08-21T13:46:24;29.00;91.90
35246;DHT22;21379;50.962;6.960;2022-08-21T13:48:53;28.80;92.20
35246;DHT22;21379;50.962;6.960;2022-08-21T13:51:21;29.00;91.80
35246;DHT22;21379;50.962;6.960;2022-08-21T13:53:50;29.20;92.20
35246;DHT22;21379;50.962;6.960;2022-08-21T13:56:22;29.20;91.80
35246;DHT22;21379;50.962;6.960;2022-08-21T13:58:53;29.00;92.20
35246;DHT22;21379;50.962;6.960;2022-08-21T14:01:23;28.70;91.40
35246;DHT22;21379;50.962;6.960;2022-08-21T14:03:53;27.50;91.70
35246;DHT22;21379;50.962;6.960;2022-08-21T14:06:25;27.90;92.00
35246;DHT22;21379;50.962;6.960;2022-08-21T14:08:56;28.30;91.90
35246;DHT22;21379;50.962;6.960;2022-08-21T14:11:24;28.70;92.20
35246;DHT22;21379;50.962;6.960;2022-08-21T14:13:58;28.70;91.90
35246;DHT22;21379;50.962;6.960;2022-08-21T14:16:29;28.60;92.10
35246;DHT22;21379;50.962;6.960;2022-08-21T14:19:17;28.40;92.00
35246;DHT22;21379;50.962;6.960;2022-08-21T14:21:45;28.20;91.40
35246;DHT22;21379;50.962;6.960;2022-08-21T14:24:14;28.30;91.80
35246;DHT22;21379;50.962;6.960;2022-08-21T14:26:53;28.20;91.40
35246;DHT22;21379;50.962;6.960;2022-08-21T14:29:24;28.40;91.30
35246;DHT22;21379;50.962;6.960;2022-08-21T14:31:55;28.10;90.90
35246;DHT22;21379;50.962;6.960;2022-08-21T14:34:24;28.30;90.70
35246;DHT22;21379;50.962;6.960;2022-08-21T14:36:51;27.50;91.30
35246;DHT22;21379;50.962;6.960;2022-08-21T14:39:18;27.80;92.20
35246;DHT22;21379;50.962;6.960;2022-08-21T14:41:45;27.40;91.30
35246;DHT22;21379;50.962;6.960;2022-08-21T14:44:14;26.90;91.70
35246;DHT22;21379;50.962;6.960;2022-08-21T14:46:43;26.40;91.80
35246;DHT22;21379;50.962;6.960;2022-08-21T14:49:10;26.20;92.20
35246;DHT22;21379;50.962;6.960;2022-08-21T14:51:37;25.70;91.90
35246;DHT22;21379;50.962;6.960;2022-08-21T14:54:05;25.70;92.00
35246;DHT22;21379;50.962;6.960;2022-08-21T14:56:32;25.40;92.00
35246;DHT22;21379;50.962;6.960;2022-08-21T14:59:03;25.30;92.20
35246;DHT22;21379;50.962;6.960;2022-08-21T15:01:46;25.20;92.40
35246;DHT22;21379;50.962;6.960;2022-08-21T15:04:13;25.20;92.20
35246;DHT22;21379;50.962;6.960;2022-08-21T15:06:40;25.20;92.30
35246;DHT22;21379;50.962;6.960;2022-08-21T15:09:06;25.30;92.60
35246;DHT22;21379;50.962;6.960;2022-08-21T15:11:34;25.30;92.50
35246;DHT22;21379;50.962;6.960;2022-08-21T15:14:03;25.20;92.20
35246;DHT22;21379;50.962;6.960;2022-08-21T15:16:33;25.30;92.20
35246;DHT22;21379;50.962;6.960;2022-08-21T15:19:01;25.20;92.10
35246;DHT22;21379;50.962;6.960;2022-08-21T15:21:28;25.20;92.10
35246;DHT22;21379;50.962;6.960;2022-08-21T15:23:55;25.30;92.40
35246;DHT22;21379;50.962;6.960;2022-08-21T15:26:22;25.20;92.30
35246;DHT22;21379;50.962;6.960;2022-08-21T15:28:50;25.20;92.60
35246;DHT22;21379;50.962;6.960;2022-08-21T15:31:17;25.20;92.40
35246;DHT22;21379;50.962;6.960;2022-08-21T15:33:44;25.10;92.80
35246;DHT22;21379;50.962;6.960;2022-08-21T15:36:12;25.10;92.70
35246;DHT22;21379;50.962;6.960;2022-08-21T15:38:39;25.20;93.10
35246;DHT22;21379;50.962;6.960;2022-08-21T15:41:06;25.10;92.70
35246;DHT22;21379;50.962;6.960;2022-08-21T15:43:39;25.20;93.10
35246;DHT22;21379;50.962;6.960;2022-08-21T15:46:11;25.10;93.00
35246;DHT22;21379;50.962;6.960;2022-08-21T15:48:38;25.20;93.30